sensor_id;sensor_type;location;lat;lon;timestamp;pressure;altitude;pressure_sealevel;temperature;humidity
80682;BME280;70045;40.200;44.582;2023-07-29T00:00:47;85988.59;;;21.15;47.50
80682;BME280;70045;40.200;44.582;2023-07-29T00:03:13;85989.31;;;21.15;47.60
80682;BME280;70045;40.200;44.582;2023-07-29T00:05:38;85983.34;;;21.15;46.98
80682;BME280;70045;40.200;44.582;2023-07-29T00:08:06;85995.53;;;21.12;47.34
80682;BME280;70045;40.200;44.582;2023-07-29T00:10:35;85988.06;;;21.05;47.68
80682;BME280;70045;40.200;44.582;2023-07-29T00:13:00;85997.44;;;21.06;47.35
80682;BME280;70045;40.200;44.582;2023-07-29T00:15:26;85991.66;;;21.02;47.45
80682;BME280;70045;40.200;44.582;2023-07-29T00:17:51;85991.16;;;20.98;47.39
80682;BME280;70045;40.200;44.582;2023-07-29T00:20:19;85982.75;;;20.94;47.12
80682;BME280;70045;40.200;44.582;2023-07-29T00:22:44;85986.25;;;20.79;47.74
80682;BME280;70045;40.200;44.582;2023-07-29T00:25:10;85994.13;;;20.68;48.19
80682;BME280;70045;40.200;44.582;2023-07-29T00:27:35;85996.22;;;20.64;48.30
80682;BME280;70045;40.200;44.582;2023-07-29T00:30:00;85999.78;;;20.61;48.86
80682;BME280;70045;40.200;44.582;2023-07-29T00:32:29;85997.88;;;20.61;48.64
80682;BME280;70045;40.200;44.582;2023-07-29T00:34:55;85997.44;;;20.63;48.34
80682;BME280;70045;40.200;44.582;2023-07-29T00:37:21;86001.91;;;20.57;48.65
80682;BME280;70045;40.200;44.582;2023-07-29T00:39:46;86006.25;;;20.60;48.37
80682;BME280;70045;40.200;44.582;2023-07-29T00:42:11;86014.41;;;20.62;48.45
80682;BME280;70045;40.200;44.582;2023-07-29T00:44:40;86013.66;;;20.61;48.17
80682;BME280;70045;40.200;44.582;2023-07-29T00:47:05;86019.94;;;20.64;48.16
80682;BME280;70045;40.200;44.582;2023-07-29T00:49:32;86023.09;;;20.68;48.01
80682;BME280;70045;40.200;44.582;2023-07-29T00:51:57;86019.47;;;20.65;47.92
80682;BME280;70045;40.200;44.582;2023-07-29T00:54:23;86020.09;;;20.55;48.20
80682;BME280;70045;40.200;44.582;2023-07-29T00:56:51;86004.00;;;20.47;48.41
80682;BME280;70045;40.200;44.582;2023-07-29T00:59:17;86019.84;;;20.53;48.42
80682;BME280;70045;40.200;44.582;2023-07-29T01:01:42;86020.09;;;20.55;48.18
80682;BME280;70045;40.200;44.582;2023-07-29T01:04:08;86011.44;;;20.48;48.07
80682;BME280;70045;40.200;44.582;2023-07-29T01:09:55;86018.13;;;20.49;48.57
80682;BME280;70045;40.200;44.582;2023-07-29T01:12:28;86027.25;;;20.48;48.71
80682;BME280;70045;40.200;44.582;2023-07-29T01:15:09;86027.25;;;20.48;48.59
80682;BME280;70045;40.200;44.582;2023-07-29T01:17:46;86019.84;;;20.53;48.64
80682;BME280;70045;40.200;44.582;2023-07-29T01:20:16;86038.78;;;20.57;48.38
80682;BME280;70045;40.200;44.582;2023-07-29T01:22:42;86033.00;;;20.53;47.80
80682;BME280;70045;40.200;44.582;2023-07-29T01:25:08;86042.09;;;20.51;47.90
80682;BME280;70045;40.200;44.582;2023-07-29T01:27:33;86032.69;;;20.45;47.86
80682;BME280;70045;40.200;44.582;2023-07-29T01:30:02;86030.34;;;20.47;48.28
80682;BME280;70045;40.200;44.582;2023-07-29T01:35:03;86039.13;;;20.38;48.12
80682;BME280;70045;40.200;44.582;2023-07-29T01:37:33;86034.06;;;20.35;48.29
80682;BME280;70045;40.200;44.582;2023-07-29T01:40:00;86047.91;;;20.29;48.52
80682;BME280;70045;40.200;44.582;2023-07-29T01:42:29;86045.75;;;20.28;48.49
80682;BME280;70045;40.200;44.582;2023-07-29T01:44:54;86045.94;;;20.24;48.76
80682;BME280;70045;40.200;44.582;2023-07-29T01:47:20;86047.81;;;20.18;48.51
80682;BME280;70045;40.200;44.582;2023-07-29T01:49:46;86024.16;;;19.98;48.23
80682;BME280;70045;40.200;44.582;2023-07-29T01:52:11;86035.94;;;20.02;48.78
80682;BME280;70045;40.200;44.582;2023-07-29T01:54:39;86045.97;;;19.98;49.29
80682;BME280;70045;40.200;44.582;2023-07-29T01:57:04;86046.22;;;20.00;48.85
80682;BME280;70045;40.200;44.582;2023-07-29T01:59:30;86040.94;;;20.00;48.44
80682;BME280;70045;40.200;44.582;2023-07-29T02:01:55;86035.91;;;19.97;48.61
80682;BME280;70045;40.200;44.582;2023-07-29T02:04:21;86030.63;;;19.97;48.95
80682;BME280;70045;40.200;44.582;2023-07-29T02:06:49;86037.31;;;19.98;49.01
80682;BME280;70045;40.200;44.582;2023-07-29T02:09:14;86035.69;;;20.00;49.04
80682;BME280;70045;40.200;44.582;2023-07-29T02:11:39;86035.69;;;20.00;48.84
80682;BME280;70045;40.200;44.582;2023-07-29T02:14:05;86040.03;;;20.03;49.00
80682;BME280;70045;40.200;44.582;2023-07-29T02:16:30;86038.81;;;20.04;48.63
80682;BME280;70045;40.200;44.582;2023-07-29T02:18:56;86034.47;;;20.01;48.93
80682;BME280;70045;40.200;44.582;2023-07-29T02:21:21;86045.53;;;20.05;48.97
80682;BME280;70045;40.200;44.582;2023-07-29T02:23:46;86001.03;;;19.75;48.71
80682;BME280;70045;40.200;44.582;2023-07-29T02:26:12;86051.59;;;20.17;48.49
80682;BME280;70045;40.200;44.582;2023-07-29T02:28:40;86046.34;;;20.17;48.65
80682;BME280;70045;40.200;44.582;2023-07-29T02:31:13;86046.88;;;20.21;48.72
80682;BME280;70045;40.200;44.582;2023-07-29T02:33:39;86047.59;;;20.22;48.89
80682;BME280;70045;40.200;44.582;2023-07-29T02:36:04;86049.03;;;20.23;48.49
80682;BME280;70045;40.200;44.582;2023-07-29T02:38:30;86047.63;;;20.27;48.23
80682;BME280;70045;40.200;44.582;2023-07-29T02:40:58;86044.84;;;20.37;48.67
80682;BME280;70045;40.200;44.582;2023-07-29T02:43:23;86039.63;;;20.42;48.50
80682;BME280;70045;40.200;44.582;2023-07-29T02:45:48;86043.22;;;20.45;48.12
80682;BME280;70045;40.200;44.582;2023-07-29T02:48:14;86042.09;;;20.51;48.08
80682;BME280;70045;40.200;44.582;2023-07-29T02:50:39;86044.56;;;20.61;48.05
80682;BME280;70045;40.200;44.582;2023-07-29T02:53:07;86048.69;;;20.67;48.15
80682;BME280;70045;40.200;44.582;2023-07-29T02:55:32;86050.34;;;20.65;48.27
80682;BME280;70045;40.200;44.582;2023-07-29T02:57:58;86056.13;;;20.69;48.09
80682;BME280;70045;40.200;44.582;2023-07-29T03:00:23;86056.22;;;20.80;47.79
80682;BME280;70045;40.200;44.582;2023-07-29T03:02:50;86057.22;;;20.88;47.90
80682;BME280;70045;40.200;44.582;2023-07-29T03:05:15;86063.25;;;20.95;47.77
80682;BME280;70045;40.200;44.582;2023-07-29T03:07:41;86052.78;;;21.06;47.41
80682;BME280;70045;40.200;44.582;2023-07-29T03:10:06;86048.22;;;21.06;47.88
80682;BME280;70045;40.200;44.582;2023-07-29T03:12:32;86047.28;;;21.10;47.62
80682;BME280;70045;40.200;44.582;2023-07-29T03:15:03;86043.06;;;21.23;48.00
80682;BME280;70045;40.200;44.582;2023-07-29T03:17:29;86045.00;;;21.34;47.42
80682;BME280;70045;40.200;44.582;2023-07-29T03:19:54;86054.22;;;21.50;47.63
80682;BME280;70045;40.200;44.582;2023-07-29T03:22:20;86048.03;;;21.65;47.31
80682;BME280;70045;40.200;44.582;2023-07-29T03:24:45;86041.34;;;21.69;47.35
80682;BME280;70045;40.200;44.582;2023-07-29T03:27:13;86043.03;;;21.78;47.48
80682;BME280;70045;40.200;44.582;2023-07-29T03:29:39;86043.78;;;21.84;47.32
80682;BME280;70045;40.200;44.582;2023-07-29T03:32:04;86041.16;;;21.90;47.23
80682;BME280;70045;40.200;44.582;2023-07-29T03:34:29;86035.91;;;21.95;47.22
80682;BME280;70045;40.200;44.582;2023-07-29T03:36:55;86014.53;;;21.93;46.81
80682;BME280;70045;40.200;44.582;2023-07-29T03:39:23;86042.91;;;22.21;47.02
80682;BME280;70045;40.200;44.582;2023-07-29T03:41:48;86039.56;;;22.26;46.64
80682;BME280;70045;40.200;44.582;2023-07-29T03:44:14;86047.28;;;22.35;46.55
80682;BME280;70045;40.200;44.582;2023-07-29T03:46:39;86045.38;;;22.36;46.42
80682;BME280;70045;40.200;44.582;2023-07-29T03:49:05;86051.84;;;22.46;46.39
80682;BME280;70045;40.200;44.582;2023-07-29T03:51:33;86045.13;;;22.51;45.80
80682;BME280;70045;40.200;44.582;2023-07-29T03:53:58;86043.69;;;22.50;45.72
80682;BME280;70045;40.200;44.582;2023-07-29T03:56:24;86042.97;;;22.55;45.86
80682;BME280;70045;40.200;44.582;2023-07-29T03:58:49;86037.94;;;22.63;45.90
80682;BME280;70045;40.200;44.582;2023-07-29T04:01:14;86052.56;;;22.58;45.60
80682;BME280;70045;40.200;44.582;2023-07-29T04:03:44;86060.72;;;22.60;45.72
80682;BME280;70045;40.200;44.582;2023-07-29T04:06:09;86050.91;;;22.61;45.56
80682;BME280;70045;40.200;44.582;2023-07-29T04:08:34;86049.22;;;22.63;45.34
80682;BME280;70045;40.200;44.582;2023-07-29T04:11:00;86052.34;;;22.79;45.35
80682;BME280;70045;40.200;44.582;2023-07-29T04:13:25;86043.91;;;22.86;45.14
80682;BME280;70045;40.200;44.582;2023-07-29T04:15:54;86036.22;;;22.99;44.82
80682;BME280;70045;40.200;44.582;2023-07-29T04:18:19;86043.91;;;23.08;44.79
80682;BME280;70045;40.200;44.582;2023-07-29T04:20:44;86040.78;;;23.16;44.34
80682;BME280;70045;40.200;44.582;2023-07-29T04:23:10;86049.44;;;23.16;44.33
80682;BME280;70045;40.200;44.582;2023-07-29T04:25:35;86053.06;;;23.07;44.38
80682;BME280;70045;40.200;44.582;2023-07-29T04:28:01;86056.41;;;22.91;44.53
80682;BME280;70045;40.200;44.582;2023-07-29T04:30:26;86055.69;;;23.02;44.75
80682;BME280;70045;40.200;44.582;2023-07-29T04:32:51;86064.09;;;23.00;44.73
80682;BME280;70045;40.200;44.582;2023-07-29T04:35:17;86056.19;;;23.06;44.44
80682;BME280;70045;40.200;44.582;2023-07-29T04:37:46;86054.75;;;23.16;44.05
80682;BME280;70045;40.200;44.582;2023-07-29T04:40:11;86061.66;;;23.36;44.01
80682;BME280;70045;40.200;44.582;2023-07-29T04:42:37;86066.19;;;23.53;43.47
80682;BME280;70045;40.200;44.582;2023-07-29T04:45:03;86068.34;;;23.60;43.76
80682;BME280;70045;40.200;44.582;2023-07-29T04:47:28;86072.63;;;23.85;42.90
80682;BME280;70045;40.200;44.582;2023-07-29T04:49:57;86066.28;;;24.00;42.27
80682;BME280;70045;40.200;44.582;2023-07-29T04:52:23;86072.47;;;24.19;41.61
80682;BME280;70045;40.200;44.582;2023-07-29T04:54:48;86070.44;;;24.37;41.40
80682;BME280;70045;40.200;44.582;2023-07-29T04:57:13;86072.34;;;24.42;41.29
80682;BME280;70045;40.200;44.582;2023-07-29T04:59:39;86075.91;;;24.56;40.82
80682;BME280;70045;40.200;44.582;2023-07-29T05:02:07;86073.94;;;24.62;40.06
80682;BME280;70045;40.200;44.582;2023-07-29T05:04:33;86060.47;;;24.60;40.00
80682;BME280;70045;40.200;44.582;2023-07-29T05:06:58;86085.63;;;24.78;39.81
80682;BME280;70045;40.200;44.582;2023-07-29T05:09:24;86082.50;;;24.79;39.79
80682;BME280;70045;40.200;44.582;2023-07-29T05:11:49;86086.47;;;24.97;39.84
80682;BME280;70045;40.200;44.582;2023-07-29T05:14:18;86092.56;;;25.17;38.90
80682;BME280;70045;40.200;44.582;2023-07-29T05:16:44;86090.09;;;25.30;39.39
80682;BME280;70045;40.200;44.582;2023-07-29T05:19:09;86091.19;;;25.41;39.35
80682;BME280;70045;40.200;44.582;2023-07-29T05:21:35;86087.56;;;25.44;39.43
80682;BME280;70045;40.200;44.582;2023-07-29T05:24:01;86082.69;;;25.48;39.14
80682;BME280;70045;40.200;44.582;2023-07-29T05:26:32;86090.66;;;25.48;38.38
80682;BME280;70045;40.200;44.582;2023-07-29T05:28:58;86081.97;;;25.47;39.05
80682;BME280;70045;40.200;44.582;2023-07-29T05:31:23;86081.91;;;25.53;39.02
80682;BME280;70045;40.200;44.582;2023-07-29T05:33:48;86087.91;;;25.59;38.95
80682;BME280;70045;40.200;44.582;2023-07-29T05:36:14;86096.09;;;25.61;38.99
80682;BME280;70045;40.200;44.582;2023-07-29T05:38:43;86089.88;;;25.53;38.18
80682;BME280;70045;40.200;44.582;2023-07-29T05:41:08;86090.09;;;25.55;38.70
80682;BME280;70045;40.200;44.582;2023-07-29T05:43:34;86093.91;;;25.60;38.86
80682;BME280;70045;40.200;44.582;2023-07-29T05:45:59;86093.38;;;25.67;38.49
80682;BME280;70045;40.200;44.582;2023-07-29T05:48:24;86089.72;;;25.70;38.42
80682;BME280;70045;40.200;44.582;2023-07-29T05:50:53;86087.34;;;25.66;38.31
80682;BME280;70045;40.200;44.582;2023-07-29T05:53:19;86097.19;;;25.71;38.24
80682;BME280;70045;40.200;44.582;2023-07-29T05:55:44;86097.84;;;25.78;38.26
80682;BME280;70045;40.200;44.582;2023-07-29T05:58:09;86098.09;;;25.80;38.01
80682;BME280;70045;40.200;44.582;2023-07-29T06:00:35;86107.91;;;25.85;37.99
80682;BME280;70045;40.200;44.582;2023-07-29T06:03:00;86104.81;;;25.81;37.75
80682;BME280;70045;40.200;44.582;2023-07-29T06:05:26;86097.81;;;25.83;37.68
80682;BME280;70045;40.200;44.582;2023-07-29T06:07:51;86092.41;;;25.89;38.10
80682;BME280;70045;40.200;44.582;2023-07-29T06:10:16;86099.16;;;25.90;37.31
80682;BME280;70045;40.200;44.582;2023-07-29T06:12:45;86102.00;;;25.98;37.07
80682;BME280;70045;40.200;44.582;2023-07-29T06:15:11;86105.31;;;26.04;37.66
80682;BME280;70045;40.200;44.582;2023-07-29T06:17:37;86099.06;;;26.01;37.12
80682;BME280;70045;40.200;44.582;2023-07-29T06:20:02;86108.22;;;26.06;37.23
80682;BME280;70045;40.200;44.582;2023-07-29T06:22:28;86108.34;;;26.14;37.16
80682;BME280;70045;40.200;44.582;2023-07-29T06:24:59;86112.09;;;26.24;36.76
80682;BME280;70045;40.200;44.582;2023-07-29T06:27:24;86108.44;;;26.27;37.22
80682;BME280;70045;40.200;44.582;2023-07-29T06:29:53;86118.09;;;26.30;37.05
80682;BME280;70045;40.200;44.582;2023-07-29T06:32:18;86109.38;;;26.29;36.82
80682;BME280;70045;40.200;44.582;2023-07-29T06:34:44;86106.63;;;26.35;36.79
80682;BME280;70045;40.200;44.582;2023-07-29T06:37:12;86109.25;;;26.41;36.75
80682;BME280;70045;40.200;44.582;2023-07-29T06:39:37;86113.41;;;26.36;36.69
80682;BME280;70045;40.200;44.582;2023-07-29T06:42:03;86105.84;;;26.40;36.68
80682;BME280;70045;40.200;44.582;2023-07-29T06:44:28;86104.84;;;26.43;36.84
80682;BME280;70045;40.200;44.582;2023-07-29T06:46:54;86103.97;;;26.35;36.75
80682;BME280;70045;40.200;44.582;2023-07-29T06:49:54;86107.72;;;26.45;36.20
80682;BME280;70045;40.200;44.582;2023-07-29T06:52:20;86102.78;;;26.55;36.69
80682;BME280;70045;40.200;44.582;2023-07-29T06:54:45;86102.28;;;26.57;36.04
80682;BME280;70045;40.200;44.582;2023-07-29T06:57:10;86097.63;;;26.63;36.33
80682;BME280;70045;40.200;44.582;2023-07-29T06:59:36;86094.41;;;26.70;36.04
80682;BME280;70045;40.200;44.582;2023-07-29T07:02:05;86092.00;;;26.85;35.54
80682;BME280;70045;40.200;44.582;2023-07-29T07:04:30;86096.31;;;26.89;36.01
80682;BME280;70045;40.200;44.582;2023-07-29T07:06:56;86101.28;;;26.98;35.57
80682;BME280;70045;40.200;44.582;2023-07-29T07:09:21;86076.47;;;26.90;35.54
80682;BME280;70045;40.200;44.582;2023-07-29T07:11:46;86096.78;;;27.06;35.40
80682;BME280;70045;40.200;44.582;2023-07-29T07:14:18;86092.31;;;27.14;35.37
80682;BME280;70045;40.200;44.582;2023-07-29T07:16:44;86093.09;;;27.28;35.21
80682;BME280;70045;40.200;44.582;2023-07-29T07:19:09;86093.13;;;27.41;34.86
80682;BME280;70045;40.200;44.582;2023-07-29T07:21:34;86083.03;;;27.53;34.85
80682;BME280;70045;40.200;44.582;2023-07-29T07:24:00;86083.72;;;27.54;34.55
80682;BME280;70045;40.200;44.582;2023-07-29T07:26:29;86090.47;;;27.55;34.39
80682;BME280;70045;40.200;44.582;2023-07-29T07:28:55;86082.19;;;27.58;34.83
80682;BME280;70045;40.200;44.582;2023-07-29T07:31:20;86084.66;;;27.70;34.54
80682;BME280;70045;40.200;44.582;2023-07-29T07:33:46;86079.97;;;27.76;33.81
80682;BME280;70045;40.200;44.582;2023-07-29T07:36:11;86064.78;;;27.57;34.00
80682;BME280;70045;40.200;44.582;2023-07-29T07:38:39;86061.94;;;27.82;34.04
80682;BME280;70045;40.200;44.582;2023-07-29T07:41:05;86066.78;;;27.97;33.75
80682;BME280;70045;40.200;44.582;2023-07-29T07:43:30;86063.69;;;28.06;33.77
80682;BME280;70045;40.200;44.582;2023-07-29T07:45:59;86058.06;;;28.23;32.48
80682;BME280;70045;40.200;44.582;2023-07-29T07:48:26;86056.41;;;28.33;33.57
80682;BME280;70045;40.200;44.582;2023-07-29T07:50:54;86048.59;;;28.35;32.48
80682;BME280;70045;40.200;44.582;2023-07-29T07:53:20;86053.22;;;28.35;33.30
80682;BME280;70045;40.200;44.582;2023-07-29T07:55:46;86048.19;;;28.31;33.18
80682;BME280;70045;40.200;44.582;2023-07-29T07:58:11;86039.63;;;27.98;33.30
80682;BME280;70045;40.200;44.582;2023-07-29T08:00:36;86044.94;;;28.12;33.20
80682;BME280;70045;40.200;44.582;2023-07-29T08:03:04;86038.38;;;28.26;32.68
80682;BME280;70045;40.200;44.582;2023-07-29T08:05:30;86043.53;;;28.45;33.20
80682;BME280;70045;40.200;44.582;2023-07-29T08:07:56;86029.31;;;28.29;33.26
80682;BME280;70045;40.200;44.582;2023-07-29T08:10:21;86027.44;;;28.51;32.82
80682;BME280;70045;40.200;44.582;2023-07-29T08:12:47;86028.84;;;28.65;32.92
80682;BME280;70045;40.200;44.582;2023-07-29T08:15:15;86022.75;;;28.78;31.96
80682;BME280;70045;40.200;44.582;2023-07-29T08:17:40;86036.34;;;28.88;32.47
80682;BME280;70045;40.200;44.582;2023-07-29T08:20:06;86023.69;;;29.02;32.08
80682;BME280;70045;40.200;44.582;2023-07-29T08:22:33;86022.22;;;29.01;32.19
80682;BME280;70045;40.200;44.582;2023-07-29T08:24:59;86017.88;;;29.11;32.32
80682;BME280;70045;40.200;44.582;2023-07-29T08:27:27;86016.72;;;29.20;31.46
80682;BME280;70045;40.200;44.582;2023-07-29T08:29:53;86008.94;;;29.22;31.80
80682;BME280;70045;40.200;44.582;2023-07-29T08:32:19;86009.97;;;29.19;31.79
80682;BME280;70045;40.200;44.582;2023-07-29T08:34:44;86000.78;;;29.27;32.05
80682;BME280;70045;40.200;44.582;2023-07-29T08:37:10;85998.44;;;29.53;31.33
80682;BME280;70045;40.200;44.582;2023-07-29T08:39:38;85997.13;;;29.67;30.93
80682;BME280;70045;40.200;44.582;2023-07-29T08:42:09;85992.78;;;29.77;30.87
80682;BME280;70045;40.200;44.582;2023-07-29T08:44:41;85995.03;;;29.73;30.88
80682;BME280;70045;40.200;44.582;2023-07-29T08:47:06;85993.28;;;29.76;30.87
80682;BME280;70045;40.200;44.582;2023-07-29T08:49:32;85986.78;;;29.92;30.69
80682;BME280;70045;40.200;44.582;2023-07-29T08:52:01;85987.72;;;30.02;29.55
80682;BME280;70045;40.200;44.582;2023-07-29T08:54:26;85984.88;;;30.08;30.35
80682;BME280;70045;40.200;44.582;2023-07-29T08:56:52;85981.19;;;30.19;29.84
80682;BME280;70045;40.200;44.582;2023-07-29T08:59:19;85969.63;;;30.24;29.79
80682;BME280;70045;40.200;44.582;2023-07-29T09:01:44;85965.00;;;30.32;29.81
80682;BME280;70045;40.200;44.582;2023-07-29T09:04:13;85959.72;;;30.40;29.16
80682;BME280;70045;40.200;44.582;2023-07-29T09:06:39;85965.47;;;30.59;29.56
80682;BME280;70045;40.200;44.582;2023-07-29T09:09:08;85964.06;;;30.74;29.31
80682;BME280;70045;40.200;44.582;2023-07-29T09:11:33;85950.59;;;31.18;28.65
80682;BME280;70045;40.200;44.582;2023-07-29T09:13:59;85946.78;;;31.75;28.22
80682;BME280;70045;40.200;44.582;2023-07-29T09:16:27;85952.69;;;32.37;27.39
80682;BME280;70045;40.200;44.582;2023-07-29T09:18:53;85948.72;;;32.87;26.13
80682;BME280;70045;40.200;44.582;2023-07-29T09:21:23;85950.88;;;33.38;25.41
80682;BME280;70045;40.200;44.582;2023-07-29T09:23:50;85930.00;;;33.89;25.15
80682;BME280;70045;40.200;44.582;2023-07-29T09:26:24;85940.91;;;34.44;24.29
80682;BME280;70045;40.200;44.582;2023-07-29T09:28:55;85926.13;;;34.80;24.23
80682;BME280;70045;40.200;44.582;2023-07-29T09:31:22;85938.84;;;35.34;23.66
80682;BME280;70045;40.200;44.582;2023-07-29T09:33:48;85945.25;;;35.75;23.13
80682;BME280;70045;40.200;44.582;2023-07-29T09:36:14;85938.75;;;36.17;23.66
80682;BME280;70045;40.200;44.582;2023-07-29T09:38:39;85926.81;;;36.79;22.56
80682;BME280;70045;40.200;44.582;2023-07-29T09:41:07;85921.34;;;37.08;21.02
80682;BME280;70045;40.200;44.582;2023-07-29T09:43:36;85921.78;;;37.46;19.83
80682;BME280;70045;40.200;44.582;2023-07-29T09:46:03;85913.53;;;37.44;19.35
80682;BME280;70045;40.200;44.582;2023-07-29T09:48:36;85911.25;;;37.81;20.30
80682;BME280;70045;40.200;44.582;2023-07-29T09:51:17;85909.19;;;38.13;18.75
80682;BME280;70045;40.200;44.582;2023-07-29T09:53:47;85908.44;;;38.56;19.32
80682;BME280;70045;40.200;44.582;2023-07-29T09:56:14;85900.19;;;38.99;19.98
80682;BME280;70045;40.200;44.582;2023-07-29T09:58:40;85900.75;;;39.31;19.56
80682;BME280;70045;40.200;44.582;2023-07-29T10:01:08;85895.91;;;39.41;17.91
80682;BME280;70045;40.200;44.582;2023-07-29T10:03:37;85901.91;;;39.75;17.96
80682;BME280;70045;40.200;44.582;2023-07-29T10:06:03;85900.06;;;39.66;18.27
80682;BME280;70045;40.200;44.582;2023-07-29T10:08:30;85894.84;;;39.70;18.77
80682;BME280;70045;40.200;44.582;2023-07-29T10:10:55;85894.25;;;39.71;18.39
80682;BME280;70045;40.200;44.582;2023-07-29T10:13:21;85890.34;;;39.86;18.17
80682;BME280;70045;40.200;44.582;2023-07-29T10:15:50;85881.97;;;40.06;16.57
80682;BME280;70045;40.200;44.582;2023-07-29T10:18:17;85879.88;;;40.42;17.26
80682;BME280;70045;40.200;44.582;2023-07-29T10:20:43;85877.88;;;40.68;18.18
80682;BME280;70045;40.200;44.582;2023-07-29T10:23:10;85869.44;;;40.76;17.74
80682;BME280;70045;40.200;44.582;2023-07-29T10:25:43;85867.03;;;41.08;16.77
80682;BME280;70045;40.200;44.582;2023-07-29T10:28:15;85854.94;;;41.11;16.36
80682;BME280;70045;40.200;44.582;2023-07-29T10:30:41;85853.41;;;41.33;17.38
80682;BME280;70045;40.200;44.582;2023-07-29T10:33:07;85852.91;;;41.51;16.63
80682;BME280;70045;40.200;44.582;2023-07-29T10:35:33;85855.47;;;41.74;16.36
80682;BME280;70045;40.200;44.582;2023-07-29T10:37:59;85842.88;;;41.67;16.49
80682;BME280;70045;40.200;44.582;2023-07-29T10:40:44;85843.16;;;41.73;15.95
80682;BME280;70045;40.200;44.582;2023-07-29T10:43:11;85846.06;;;41.91;15.65
80682;BME280;70045;40.200;44.582;2023-07-29T10:45:37;85824.75;;;42.29;16.27
80682;BME280;70045;40.200;44.582;2023-07-29T10:51:36;85836.81;;;42.40;14.21
80682;BME280;70045;40.200;44.582;2023-07-29T10:56:29;85836.13;;;43.31;14.94
80682;BME280;70045;40.200;44.582;2023-07-29T10:58:56;85829.28;;;43.62;14.61
80682;BME280;70045;40.200;44.582;2023-07-29T11:01:29;85830.28;;;44.03;13.86
80682;BME280;70045;40.200;44.582;2023-07-29T11:12:49;85816.44;;;43.49;14.08
80682;BME280;70045;40.200;44.582;2023-07-29T11:15:23;85819.78;;;43.79;14.29
80682;BME280;70045;40.200;44.582;2023-07-29T11:17:51;85811.50;;;43.77;14.44
80682;BME280;70045;40.200;44.582;2023-07-29T11:20:20;85810.91;;;44.30;13.63
80682;BME280;70045;40.200;44.582;2023-07-29T11:22:50;85805.47;;;44.48;12.76
80682;BME280;70045;40.200;44.582;2023-07-29T11:25:18;85807.13;;;44.73;13.69
80682;BME280;70045;40.200;44.582;2023-07-29T11:27:44;85799.22;;;45.00;13.12
80682;BME280;70045;40.200;44.582;2023-07-29T11:30:12;85795.31;;;45.63;13.30
80682;BME280;70045;40.200;44.582;2023-07-29T11:32:39;85792.66;;;45.65;12.35
80682;BME280;70045;40.200;44.582;2023-07-29T11:35:09;85780.44;;;45.68;11.89
80682;BME280;70045;40.200;44.582;2023-07-29T11:37:35;85788.81;;;45.72;12.14
80682;BME280;70045;40.200;44.582;2023-07-29T11:40:02;85786.75;;;45.73;12.40
80682;BME280;70045;40.200;44.582;2023-07-29T11:42:27;85786.81;;;45.55;12.50
80682;BME280;70045;40.200;44.582;2023-07-29T11:44:57;85789.56;;;45.55;12.47
80682;BME280;70045;40.200;44.582;2023-07-29T11:47:25;85785.75;;;45.64;12.14
80682;BME280;70045;40.200;44.582;2023-07-29T11:49:50;85784.09;;;45.17;12.40
80682;BME280;70045;40.200;44.582;2023-07-29T11:52:16;85786.91;;;45.37;12.46
80682;BME280;70045;40.200;44.582;2023-07-29T11:54:41;85790.19;;;45.53;12.30
80682;BME280;70045;40.200;44.582;2023-07-29T11:57:07;85784.22;;;45.39;12.23
80682;BME280;70045;40.200;44.582;2023-07-29T11:59:37;85776.06;;;45.61;11.78
80682;BME280;70045;40.200;44.582;2023-07-29T12:02:13;85779.53;;;45.81;11.58
80682;BME280;70045;40.200;44.582;2023-07-29T12:04:40;85762.53;;;45.65;12.21
80682;BME280;70045;40.200;44.582;2023-07-29T12:07:07;85769.59;;;45.32;12.13
80682;BME280;70045;40.200;44.582;2023-07-29T12:09:36;85770.41;;;45.75;12.40
80682;BME280;70045;40.200;44.582;2023-07-29T12:12:05;85761.66;;;46.00;11.91
80682;BME280;70045;40.200;44.582;2023-07-29T12:14:31;85763.81;;;46.04;11.81
80682;BME280;70045;40.200;44.582;2023-07-29T12:17:00;85772.09;;;45.44;11.88
80682;BME280;70045;40.200;44.582;2023-07-29T12:19:32;85773.78;;;45.33;12.18
80682;BME280;70045;40.200;44.582;2023-07-29T12:21:57;85759.44;;;45.55;11.59
80682;BME280;70045;40.200;44.582;2023-07-29T12:24:26;85753.81;;;45.91;11.07
80682;BME280;70045;40.200;44.582;2023-07-29T12:26:52;85722.72;;;44.28;12.27
80682;BME280;70045;40.200;44.582;2023-07-29T12:29:18;85762.56;;;45.27;12.00
80682;BME280;70045;40.200;44.582;2023-07-29T12:31:44;85756.34;;;45.84;11.54
80682;BME280;70045;40.200;44.582;2023-07-29T12:34:09;85758.44;;;46.06;11.37
80682;BME280;70045;40.200;44.582;2023-07-29T12:36:45;85759.63;;;46.01;10.93
80682;BME280;70045;40.200;44.582;2023-07-29T12:39:23;85750.97;;;46.09;11.48
80682;BME280;70045;40.200;44.582;2023-07-29T12:41:50;85754.41;;;46.09;11.35
80682;BME280;70045;40.200;44.582;2023-07-29T12:44:16;85759.41;;;46.37;11.46
80682;BME280;70045;40.200;44.582;2023-07-29T12:46:46;85747.16;;;46.18;11.10
80682;BME280;70045;40.200;44.582;2023-07-29T12:49:12;85747.75;;;46.36;11.33
80682;BME280;70045;40.200;44.582;2023-07-29T12:51:37;85741.22;;;46.70;10.70
80682;BME280;70045;40.200;44.582;2023-07-29T12:54:04;85736.47;;;46.94;10.93
80682;BME280;70045;40.200;44.582;2023-07-29T12:56:30;85737.19;;;47.19;10.98
80682;BME280;70045;40.200;44.582;2023-07-29T12:58:55;85740.81;;;47.02;10.69
80682;BME280;70045;40.200;44.582;2023-07-29T13:01:21;85743.34;;;46.71;11.48
80682;BME280;70045;40.200;44.582;2023-07-29T13:03:47;85732.16;;;46.87;10.87
80682;BME280;70045;40.200;44.582;2023-07-29T13:06:13;85722.66;;;46.90;10.98
80682;BME280;70045;40.200;44.582;2023-07-29T13:08:39;85727.25;;;46.62;10.93